FAKM

Kimberley Airport

Kimberley, South Africa
METAR FAKM 140000Z AUTO 00000KT //// // ////// 18/M09 Q1020
Observed Flight Rules
Dec-14 @ 00:00 UTC (45 minutes ago)
Temperatures Readings
Current 18°C / 64°F
Dewpoint -9°C / 16°F
Humidity 15%
Altimeter 30.12" Hg
Pressure 1020 hPa
Elevation 1192
METAR FAKM 140000Z AUTO 00000KT //// // ////// 18/M09 Q1020
Observed Flight Rules
Dec-14 @ 00:00 UTC
(45 minutes ago)
Temperature Dewpoint
18°C / 64°F -9°C / 16°F
Humidity Altimeter Pressure
15% 30.12" Hg 1020 hPa